sensor_id;sensor_type;location;lat;lon;timestamp;pressure;altitude;pressure_sealevel;temperature;humidity
49216;BME280;45943;53.148;8.204;2024-03-07T00:00:59;102878.44;;;8.93;92.73
49216;BME280;45943;53.148;8.204;2024-03-07T00:03:25;102881.38;;;8.86;92.01
49216;BME280;45943;53.148;8.204;2024-03-07T00:05:51;102877.00;;;8.84;92.42
49216;BME280;45943;53.148;8.204;2024-03-07T00:08:17;102871.03;;;8.77;92.25
49216;BME280;45943;53.148;8.204;2024-03-07T00:10:43;102876.63;;;8.71;91.81
49216;BME280;45943;53.148;8.204;2024-03-07T00:13:10;102882.97;;;8.69;93.55
49216;BME280;45943;53.148;8.204;2024-03-07T00:15:36;102876.63;;;8.71;93.23
49216;BME280;45943;53.148;8.204;2024-03-07T00:18:02;102878.25;;;8.75;92.61
49216;BME280;45943;53.148;8.204;2024-03-07T00:20:28;102882.63;;;8.78;92.04
49216;BME280;45943;53.148;8.204;2024-03-07T00:22:54;102887.16;;;8.76;93.10
49216;BME280;45943;53.148;8.204;2024-03-07T00:25:20;102880.53;;;8.62;93.06
49216;BME280;45943;53.148;8.204;2024-03-07T00:27:47;102880.38;;;8.67;95.07
49216;BME280;45943;53.148;8.204;2024-03-07T00:30:14;102881.47;;;8.83;96.76
49216;BME280;45943;53.148;8.204;2024-03-07T00:32:44;102873.13;;;8.91;91.80
49216;BME280;45943;53.148;8.204;2024-03-07T00:35:10;102881.09;;;8.93;92.65
49216;BME280;45943;53.148;8.204;2024-03-07T00:37:36;102883.59;;;8.97;92.61
49216;BME280;45943;53.148;8.204;2024-03-07T00:40:03;102886.16;;;9.00;91.60
49216;BME280;45943;53.148;8.204;2024-03-07T00:42:29;102881.72;;;8.99;92.43
49216;BME280;45943;53.148;8.204;2024-03-07T00:44:55;102883.97;;;8.88;95.45
49216;BME280;45943;53.148;8.204;2024-03-07T00:47:21;102879.44;;;8.90;91.15
49216;BME280;45943;53.148;8.204;2024-03-07T00:49:48;102880.22;;;8.92;90.74
49216;BME280;45943;53.148;8.204;2024-03-07T00:52:14;102879.75;;;8.82;91.23
49216;BME280;45943;53.148;8.204;2024-03-07T00:54:41;102867.88;;;8.68;92.85
49216;BME280;45943;53.148;8.204;2024-03-07T00:57:07;102869.47;;;8.72;96.47
49216;BME280;45943;53.148;8.204;2024-03-07T00:59:33;102871.63;;;8.84;94.23
49216;BME280;45943;53.148;8.204;2024-03-07T01:01:59;102863.25;;;8.93;93.87
49216;BME280;45943;53.148;8.204;2024-03-07T01:04:25;102873.13;;;8.91;92.45
49216;BME280;45943;53.148;8.204;2024-03-07T01:06:57;102868.59;;;8.93;92.36
49216;BME280;45943;53.148;8.204;2024-03-07T01:09:23;102872.28;;;8.90;93.13
49216;BME280;45943;53.148;8.204;2024-03-07T01:11:50;102860.19;;;8.80;94.49
49216;BME280;45943;53.148;8.204;2024-03-07T01:14:16;102868.47;;;8.74;95.26
49216;BME280;45943;53.148;8.204;2024-03-07T01:16:42;102866.84;;;8.70;96.16
49216;BME280;45943;53.148;8.204;2024-03-07T01:19:08;102863.25;;;8.71;97.49
49216;BME280;45943;53.148;8.204;2024-03-07T01:21:34;102864.25;;;8.69;98.12
49216;BME280;45943;53.148;8.204;2024-03-07T01:24:03;102855.88;;;8.54;97.10
49216;BME280;45943;53.148;8.204;2024-03-07T01:26:29;102862.94;;;8.57;98.93
49216;BME280;45943;53.148;8.204;2024-03-07T01:28:56;102859.19;;;8.61;99.40
49216;BME280;45943;53.148;8.204;2024-03-07T01:31:23;102863.75;;;8.59;99.45
49216;BME280;45943;53.148;8.204;2024-03-07T01:33:50;102859.94;;;8.65;99.55
49216;BME280;45943;53.148;8.204;2024-03-07T01:36:16;102862.94;;;8.57;99.82
49216;BME280;45943;53.148;8.204;2024-03-07T01:38:42;102855.44;;;8.43;100.00
49216;BME280;45943;53.148;8.204;2024-03-07T01:41:08;102847.75;;;8.34;100.00
49216;BME280;45943;53.148;8.204;2024-03-07T01:43:34;102857.19;;;8.21;100.00
49216;BME280;45943;53.148;8.204;2024-03-07T01:46:00;102857.84;;;8.27;100.00
49216;BME280;45943;53.148;8.204;2024-03-07T01:48:27;102857.56;;;8.33;100.00
49216;BME280;45943;53.148;8.204;2024-03-07T01:50:58;102857.56;;;8.33;100.00
49216;BME280;45943;53.148;8.204;2024-03-07T01:53:27;102841.66;;;8.30;100.00
49216;BME280;45943;53.148;8.204;2024-03-07T01:55:56;102847.06;;;8.29;100.00
49216;BME280;45943;53.148;8.204;2024-03-07T01:58:23;102848.72;;;8.10;100.00
49216;BME280;45943;53.148;8.204;2024-03-07T02:00:49;102848.13;;;8.01;100.00
49216;BME280;45943;53.148;8.204;2024-03-07T02:03:16;102844.72;;;7.98;100.00
49216;BME280;45943;53.148;8.204;2024-03-07T02:05:43;102842.56;;;8.08;100.00
49216;BME280;45943;53.148;8.204;2024-03-07T02:08:09;102842.25;;;8.15;100.00
49216;BME280;45943;53.148;8.204;2024-03-07T02:10:35;102828.00;;;8.15;100.00
49216;BME280;45943;53.148;8.204;2024-03-07T02:13:01;102830.06;;;8.08;100.00
49216;BME280;45943;53.148;8.204;2024-03-07T02:15:28;102826.47;;;8.09;100.00
49216;BME280;45943;53.148;8.204;2024-03-07T02:17:54;102818.25;;;8.14;100.00
49216;BME280;45943;53.148;8.204;2024-03-07T02:20:20;102819.94;;;8.16;100.00
49216;BME280;45943;53.148;8.204;2024-03-07T02:22:46;102821.91;;;8.11;100.00
49216;BME280;45943;53.148;8.204;2024-03-07T02:25:12;102829.94;;;8.11;100.00
49216;BME280;45943;53.148;8.204;2024-03-07T02:27:38;102826.97;;;8.19;100.00
49216;BME280;45943;53.148;8.204;2024-03-07T02:30:05;102834.13;;;8.18;100.00
49216;BME280;45943;53.148;8.204;2024-03-07T02:32:36;102825.47;;;8.12;100.00
49216;BME280;45943;53.148;8.204;2024-03-07T02:35:05;102829.97;;;7.86;100.00
49216;BME280;45943;53.148;8.204;2024-03-07T02:37:32;102835.63;;;7.79;100.00
49216;BME280;45943;53.148;8.204;2024-03-07T02:39:58;102834.69;;;7.80;100.00
49216;BME280;45943;53.148;8.204;2024-03-07T02:42:24;102837.78;;;7.69;100.00
49216;BME280;45943;53.148;8.204;2024-03-07T02:44:50;102832.50;;;7.67;100.00
49216;BME280;45943;53.148;8.204;2024-03-07T02:47:18;102836.13;;;7.65;100.00
49216;BME280;45943;53.148;8.204;2024-03-07T02:49:44;102834.44;;;7.62;100.00
49216;BME280;45943;53.148;8.204;2024-03-07T02:52:10;102834.44;;;7.62;100.00
49216;BME280;45943;53.148;8.204;2024-03-07T02:54:36;102841.69;;;7.59;100.00
49216;BME280;45943;53.148;8.204;2024-03-07T02:57:02;102849.97;;;7.51;100.00
49216;BME280;45943;53.148;8.204;2024-03-07T02:59:28;102835.59;;;7.55;100.00
49216;BME280;45943;53.148;8.204;2024-03-07T03:01:54;102835.41;;;7.35;100.00
49216;BME280;45943;53.148;8.204;2024-03-07T03:04:21;102837.53;;;7.25;100.00
49216;BME280;45943;53.148;8.204;2024-03-07T03:06:47;102831.38;;;7.23;100.00
49216;BME280;45943;53.148;8.204;2024-03-07T03:09:13;102830.56;;;7.21;100.00
49216;BME280;45943;53.148;8.204;2024-03-07T03:11:46;102834.25;;;7.17;100.00
49216;BME280;45943;53.148;8.204;2024-03-07T03:14:12;102840.16;;;7.27;100.00
49216;BME280;45943;53.148;8.204;2024-03-07T03:16:42;102829.06;;;7.39;100.00
49216;BME280;45943;53.148;8.204;2024-03-07T03:19:09;102837.75;;;7.44;100.00
49216;BME280;45943;53.148;8.204;2024-03-07T03:21:36;102834.22;;;7.43;100.00
49216;BME280;45943;53.148;8.204;2024-03-07T03:24:02;102828.66;;;7.25;100.00
49216;BME280;45943;53.148;8.204;2024-03-07T03:26:28;102838.69;;;7.18;100.00
49216;BME280;45943;53.148;8.204;2024-03-07T03:28:54;102830.88;;;7.12;100.00
49216;BME280;45943;53.148;8.204;2024-03-07T03:31:20;102840.13;;;7.02;100.00
49216;BME280;45943;53.148;8.204;2024-03-07T03:33:46;102833.34;;;6.92;100.00
49216;BME280;45943;53.148;8.204;2024-03-07T03:36:13;102835.34;;;6.85;100.00
49216;BME280;45943;53.148;8.204;2024-03-07T03:38:39;102836.81;;;6.67;100.00
49216;BME280;45943;53.148;8.204;2024-03-07T03:41:05;102839.53;;;6.38;100.00
49216;BME280;45943;53.148;8.204;2024-03-07T03:43:31;102830.50;;;6.14;100.00
49216;BME280;45943;53.148;8.204;2024-03-07T03:45:57;102837.31;;;6.24;100.00
49216;BME280;45943;53.148;8.204;2024-03-07T03:48:23;102838.88;;;6.31;100.00
49216;BME280;45943;53.148;8.204;2024-03-07T03:50:49;102836.28;;;6.28;100.00
49216;BME280;45943;53.148;8.204;2024-03-07T03:53:15;102839.47;;;6.41;100.00
49216;BME280;45943;53.148;8.204;2024-03-07T03:55:42;102838.78;;;6.62;100.00
49216;BME280;45943;53.148;8.204;2024-03-07T03:58:08;102839.91;;;6.81;100.00
49216;BME280;45943;53.148;8.204;2024-03-07T04:00:34;102842.66;;;6.80;100.00
49216;BME280;45943;53.148;8.204;2024-03-07T04:03:00;102847.13;;;6.51;100.00
49216;BME280;45943;53.148;8.204;2024-03-07T04:05:26;102846.59;;;6.11;100.00
49216;BME280;45943;53.148;8.204;2024-03-07T04:07:52;102846.88;;;6.01;100.00
49216;BME280;45943;53.148;8.204;2024-03-07T04:10:19;102847.63;;;6.05;100.00
49216;BME280;45943;53.148;8.204;2024-03-07T04:12:45;102842.81;;;5.87;100.00
49216;BME280;45943;53.148;8.204;2024-03-07T04:15:13;102842.03;;;5.83;100.00
49216;BME280;45943;53.148;8.204;2024-03-07T04:17:43;102837.44;;;5.88;100.00
49216;BME280;45943;53.148;8.204;2024-03-07T04:20:11;102853.28;;;5.94;100.00
49216;BME280;45943;53.148;8.204;2024-03-07T04:22:39;102839.53;;;5.77;100.00
49216;BME280;45943;53.148;8.204;2024-03-07T04:25:05;102853.22;;;5.96;100.00
49216;BME280;45943;53.148;8.204;2024-03-07T04:27:35;102851.78;;;6.15;100.00
49216;BME280;45943;53.148;8.204;2024-03-07T04:30:06;102837.41;;;6.19;100.00
49216;BME280;45943;53.148;8.204;2024-03-07T04:32:33;102840.03;;;6.22;100.00
49216;BME280;45943;53.148;8.204;2024-03-07T04:35:03;102838.34;;;6.18;100.00
49216;BME280;45943;53.148;8.204;2024-03-07T04:37:36;102838.75;;;6.34;100.00
49216;BME280;45943;53.148;8.204;2024-03-07T04:40:06;102835.34;;;6.30;100.00
49216;BME280;45943;53.148;8.204;2024-03-07T04:42:44;102837.84;;;6.35;100.00
49216;BME280;45943;53.148;8.204;2024-03-07T04:45:11;102844.00;;;6.37;100.00
49216;BME280;45943;53.148;8.204;2024-03-07T04:47:41;102840.28;;;6.43;100.00
49216;BME280;45943;53.148;8.204;2024-03-07T04:50:11;102840.97;;;6.49;100.00
49216;BME280;45943;53.148;8.204;2024-03-07T04:52:38;102834.66;;;6.52;100.00
49216;BME280;45943;53.148;8.204;2024-03-07T04:55:07;102842.72;;;6.50;100.00
49216;BME280;45943;53.148;8.204;2024-03-07T04:57:36;102838.03;;;6.57;100.00
49216;BME280;45943;53.148;8.204;2024-03-07T05:00:09;102838.25;;;6.79;100.00
49216;BME280;45943;53.148;8.204;2024-03-07T05:02:40;102830.22;;;6.79;100.00
49216;BME280;45943;53.148;8.204;2024-03-07T05:05:07;102840.34;;;6.68;100.00
49216;BME280;45943;53.148;8.204;2024-03-07T05:07:33;102835.81;;;6.71;100.00
49216;BME280;45943;53.148;8.204;2024-03-07T05:09:59;102835.59;;;6.77;100.00
49216;BME280;45943;53.148;8.204;2024-03-07T05:12:26;102839.75;;;6.86;100.00
49216;BME280;45943;53.148;8.204;2024-03-07T05:14:52;102836.28;;;6.84;100.00
49216;BME280;45943;53.148;8.204;2024-03-07T05:17:19;102836.28;;;6.84;100.00
49216;BME280;45943;53.148;8.204;2024-03-07T05:19:45;102839.09;;;6.79;100.00
49216;BME280;45943;53.148;8.204;2024-03-07T05:22:11;102844.28;;;6.84;100.00
49216;BME280;45943;53.148;8.204;2024-03-07T05:24:41;102837.50;;;6.74;100.00
49216;BME280;45943;53.148;8.204;2024-03-07T05:27:08;102850.03;;;6.72;100.00
49216;BME280;45943;53.148;8.204;2024-03-07T05:29:37;102844.78;;;6.69;100.00
49216;BME280;45943;53.148;8.204;2024-03-07T05:32:22;102840.97;;;6.76;100.00
49216;BME280;45943;53.148;8.204;2024-03-07T05:34:51;102842.94;;;6.71;100.00
49216;BME280;45943;53.148;8.204;2024-03-07T05:37:21;102831.41;;;6.70;100.00
49216;BME280;45943;53.148;8.204;2024-03-07T05:39:50;102832.09;;;6.75;100.00
49216;BME280;45943;53.148;8.204;2024-03-07T05:42:17;102836.22;;;6.85;100.00
49216;BME280;45943;53.148;8.204;2024-03-07T05:44:46;102843.69;;;6.74;100.00
49216;BME280;45943;53.148;8.204;2024-03-07T05:47:12;102841.78;;;6.78;100.00
49216;BME280;45943;53.148;8.204;2024-03-07T05:49:41;102843.47;;;6.82;100.00
49216;BME280;45943;53.148;8.204;2024-03-07T05:52:07;102843.41;;;6.83;100.00
49216;BME280;45943;53.148;8.204;2024-03-07T05:54:34;102845.09;;;6.86;100.00
49216;BME280;45943;53.148;8.204;2024-03-07T05:57:00;102836.78;;;6.69;100.00
49216;BME280;45943;53.148;8.204;2024-03-07T05:59:27;102847.06;;;6.81;100.00
49216;BME280;45943;53.148;8.204;2024-03-07T06:01:59;102844.38;;;6.81;100.00
49216;BME280;45943;53.148;8.204;2024-03-07T06:04:25;102854.06;;;6.83;100.00
49216;BME280;45943;53.148;8.204;2024-03-07T06:06:52;102850.28;;;6.90;100.00
49216;BME280;45943;53.148;8.204;2024-03-07T06:09:18;102858.91;;;6.99;100.00
49216;BME280;45943;53.148;8.204;2024-03-07T06:11:47;102860.44;;;7.06;100.00
49216;BME280;45943;53.148;8.204;2024-03-07T06:14:14;102854.28;;;7.04;100.00
49216;BME280;45943;53.148;8.204;2024-03-07T06:16:41;102854.09;;;7.10;100.00
49216;BME280;45943;53.148;8.204;2024-03-07T06:19:08;102861.00;;;7.15;100.00
49216;BME280;45943;53.148;8.204;2024-03-07T06:21:35;102855.28;;;7.26;100.00
49216;BME280;45943;53.148;8.204;2024-03-07T06:24:02;102853.81;;;7.17;100.00
49216;BME280;45943;53.148;8.204;2024-03-07T06:26:29;102860.13;;;7.15;100.00
49216;BME280;45943;53.148;8.204;2024-03-07T06:29:03;102857.31;;;7.19;100.00
49216;BME280;45943;53.148;8.204;2024-03-07T06:31:34;102861.22;;;7.09;100.00
49216;BME280;45943;53.148;8.204;2024-03-07T06:34:00;102855.38;;;6.98;100.00
49216;BME280;45943;53.148;8.204;2024-03-07T06:36:26;102861.25;;;7.08;100.00
49216;BME280;45943;53.148;8.204;2024-03-07T06:38:53;102853.88;;;7.16;100.00
49216;BME280;45943;53.148;8.204;2024-03-07T06:41:20;102867.38;;;7.11;100.00
49216;BME280;45943;53.148;8.204;2024-03-07T06:43:45;102872.16;;;6.74;100.00
49216;BME280;45943;53.148;8.204;2024-03-07T06:46:12;102857.47;;;6.88;100.00
49216;BME280;45943;53.148;8.204;2024-03-07T06:48:38;102860.03;;;6.92;100.00
49216;BME280;45943;53.148;8.204;2024-03-07T06:51:07;102865.22;;;6.96;100.00
49216;BME280;45943;53.148;8.204;2024-03-07T06:53:33;102863.06;;;7.07;100.00
49216;BME280;45943;53.148;8.204;2024-03-07T06:56:00;102870.75;;;7.16;100.00
49216;BME280;45943;53.148;8.204;2024-03-07T06:58:26;102869.00;;;7.15;100.00
49216;BME280;45943;53.148;8.204;2024-03-07T07:00:52;102867.22;;;7.16;100.00
49216;BME280;45943;53.148;8.204;2024-03-07T07:03:23;102872.84;;;7.08;100.00
49216;BME280;45943;53.148;8.204;2024-03-07T07:05:50;102866.00;;;7.00;100.00
49216;BME280;45943;53.148;8.204;2024-03-07T07:08:16;102870.72;;;7.18;100.00
49216;BME280;45943;53.148;8.204;2024-03-07T07:10:42;102874.84;;;7.27;100.00
49216;BME280;45943;53.148;8.204;2024-03-07T07:13:09;102875.88;;;7.23;100.00
49216;BME280;45943;53.148;8.204;2024-03-07T07:15:36;102876.97;;;7.17;100.00
49216;BME280;45943;53.148;8.204;2024-03-07T07:18:02;102880.44;;;6.93;100.00
49216;BME280;45943;53.148;8.204;2024-03-07T07:20:29;102880.16;;;7.02;100.00
49216;BME280;45943;53.148;8.204;2024-03-07T07:22:55;102884.22;;;7.13;100.00
49216;BME280;45943;53.148;8.204;2024-03-07T07:25:23;102884.25;;;7.12;100.00
49216;BME280;45943;53.148;8.204;2024-03-07T07:27:50;102876.72;;;7.25;100.00
49216;BME280;45943;53.148;8.204;2024-03-07T07:30:18;102867.03;;;7.47;100.00
49216;BME280;45943;53.148;8.204;2024-03-07T07:32:48;102869.88;;;7.67;100.00
49216;BME280;45943;53.148;8.204;2024-03-07T07:35:15;102864.31;;;7.73;100.00
49216;BME280;45943;53.148;8.204;2024-03-07T07:37:42;102852.59;;;7.78;100.00
49216;BME280;45943;53.148;8.204;2024-03-07T07:40:12;102855.03;;;7.84;100.00
49216;BME280;45943;53.148;8.204;2024-03-07T07:42:40;102845.78;;;7.92;100.00
49216;BME280;45943;53.148;8.204;2024-03-07T07:45:11;102853.06;;;8.12;100.00
49216;BME280;45943;53.148;8.204;2024-03-07T07:47:40;102854.72;;;8.16;100.00
49216;BME280;45943;53.148;8.204;2024-03-07T07:50:08;102848.97;;;8.25;100.00
49216;BME280;45943;53.148;8.204;2024-03-07T07:52:52;102844.34;;;8.30;100.00
49216;BME280;45943;53.148;8.204;2024-03-07T07:57:58;102843.28;;;8.58;100.00
49216;BME280;45943;53.148;8.204;2024-03-07T08:00:25;102844.03;;;8.61;100.00
49216;BME280;45943;53.148;8.204;2024-03-07T08:02:58;102840.75;;;8.77;100.00
49216;BME280;45943;53.148;8.204;2024-03-07T08:05:30;102837.53;;;8.89;100.00
49216;BME280;45943;53.148;8.204;2024-03-07T08:07:59;102837.47;;;8.90;100.00
49216;BME280;45943;53.148;8.204;2024-03-07T08:10:28;102841.09;;;8.89;100.00
49216;BME280;45943;53.148;8.204;2024-03-07T08:12:55;102837.34;;;8.94;100.00
49216;BME280;45943;53.148;8.204;2024-03-07T08:15:21;102830.38;;;8.89;100.00
49216;BME280;45943;53.148;8.204;2024-03-07T08:17:47;102833.50;;;8.79;100.00
49216;BME280;45943;53.148;8.204;2024-03-07T08:20:14;102833.75;;;8.73;100.00
49216;BME280;45943;53.148;8.204;2024-03-07T08:22:46;102829.19;;;8.75;100.00
49216;BME280;45943;53.148;8.204;2024-03-07T08:25:13;102829.91;;;8.80;100.00
49216;BME280;45943;53.148;8.204;2024-03-07T08:27:40;102830.09;;;8.75;100.00
49216;BME280;45943;53.148;8.204;2024-03-07T08:30:10;102827.28;;;8.78;100.00
49216;BME280;45943;53.148;8.204;2024-03-07T08:32:40;102823.59;;;8.81;100.00
49216;BME280;45943;53.148;8.204;2024-03-07T08:35:08;102825.91;;;8.90;100.00
49216;BME280;45943;53.148;8.204;2024-03-07T08:37:35;102817.41;;;9.01;100.00
49216;BME280;45943;53.148;8.204;2024-03-07T08:40:02;102823.91;;;8.95;100.00
49216;BME280;45943;53.148;8.204;2024-03-07T08:42:33;102813.38;;;8.90;100.00
49216;BME280;45943;53.148;8.204;2024-03-07T08:45:00;102816.88;;;8.93;100.00
49216;BME280;45943;53.148;8.204;2024-03-07T08:47:33;102810.53;;;8.95;100.00
49216;BME280;45943;53.148;8.204;2024-03-07T08:50:02;102811.75;;;9.08;100.00
49216;BME280;45943;53.148;8.204;2024-03-07T08:52:34;102807.59;;;9.22;100.00
49216;BME280;45943;53.148;8.204;2024-03-07T08:55:02;102801.28;;;9.23;100.00
49216;BME280;45943;53.148;8.204;2024-03-07T08:57:29;102798.75;;;9.19;100.00
49216;BME280;45943;53.148;8.204;2024-03-07T08:59:56;102799.97;;;9.12;100.00
49216;BME280;45943;53.148;8.204;2024-03-07T09:02:22;102802.31;;;9.20;100.00
49216;BME280;45943;53.148;8.204;2024-03-07T09:04:49;102797.81;;;9.20;100.00
49216;BME280;45943;53.148;8.204;2024-03-07T09:07:15;102795.75;;;9.27;100.00
49216;BME280;45943;53.148;8.204;2024-03-07T09:09:40;102798.22;;;9.11;100.00
49216;BME280;45943;53.148;8.204;2024-03-07T09:12:09;102802.09;;;9.04;100.00
49216;BME280;45943;53.148;8.204;2024-03-07T09:14:35;102805.59;;;9.06;100.00
49216;BME280;45943;53.148;8.204;2024-03-07T09:17:01;102805.69;;;9.03;100.00
49216;BME280;45943;53.148;8.204;2024-03-07T09:19:27;102804.72;;;9.06;100.00
49216;BME280;45943;53.148;8.204;2024-03-07T09:21:54;102805.31;;;9.12;100.00
49216;BME280;45943;53.148;8.204;2024-03-07T09:24:20;102805.38;;;9.11;100.00
49216;BME280;45943;53.148;8.204;2024-03-07T09:26:49;102806.78;;;8.99;100.00
49216;BME280;45943;53.148;8.204;2024-03-07T09:29:17;102802.09;;;9.04;100.00
49216;BME280;45943;53.148;8.204;2024-03-07T09:31:50;102800.72;;;9.16;100.00
49216;BME280;45943;53.148;8.204;2024-03-07T09:34:20;102800.34;;;9.24;100.00
49216;BME280;45943;53.148;8.204;2024-03-07T09:36:47;102797.69;;;9.24;100.00
49216;BME280;45943;53.148;8.204;2024-03-07T09:39:14;102797.91;;;9.19;100.00
49216;BME280;45943;53.148;8.204;2024-03-07T09:41:41;102798.38;;;9.29;100.00
49216;BME280;45943;53.148;8.204;2024-03-07T09:44:14;102793.41;;;9.40;100.00
49216;BME280;45943;53.148;8.204;2024-03-07T09:46:52;102788.03;;;9.40;100.00
49216;BME280;45943;53.148;8.204;2024-03-07T09:49:20;102791.72;;;9.58;100.00
49216;BME280;45943;53.148;8.204;2024-03-07T09:51:47;102785.94;;;9.67;100.00
49216;BME280;45943;53.148;8.204;2024-03-07T09:54:20;102793.53;;;9.57;100.00
49216;BME280;45943;53.148;8.204;2024-03-07T09:56:49;102790.44;;;9.66;100.00
49216;BME280;45943;53.148;8.204;2024-03-07T09:59:16;102781.19;;;9.73;100.00
49216;BME280;45943;53.148;8.204;2024-03-07T10:01:47;102778.78;;;9.86;100.00
49216;BME280;45943;53.148;8.204;2024-03-07T10:04:16;102778.88;;;9.85;100.00
49216;BME280;45943;53.148;8.204;2024-03-07T10:06:54;102781.97;;;9.75;100.00
49216;BME280;45943;53.148;8.204;2024-03-07T10:09:21;102776.88;;;9.69;100.00
49216;BME280;45943;53.148;8.204;2024-03-07T10:12:00;102783.78;;;9.75;100.00
49216;BME280;45943;53.148;8.204;2024-03-07T10:14:31;102783.72;;;9.95;100.00
49216;BME280;45943;53.148;8.204;2024-03-07T10:16:58;102785.81;;;10.07;100.00
49216;BME280;45943;53.148;8.204;2024-03-07T10:19:24;102780.97;;;9.97;100.00
49216;BME280;45943;53.148;8.204;2024-03-07T10:21:50;102784.09;;;10.06;100.00
49216;BME280;45943;53.148;8.204;2024-03-07T10:24:17;102781.59;;;10.02;100.00
49216;BME280;45943;53.148;8.204;2024-03-07T10:26:50;102791.81;;;9.75;100.00
49216;BME280;45943;53.148;8.204;2024-03-07T10:29:16;102786.22;;;9.80;100.00
49216;BME280;45943;53.148;8.204;2024-03-07T10:31:44;102783.91;;;9.91;100.00
49216;BME280;45943;53.148;8.204;2024-03-07T10:34:11;102780.72;;;10.01;100.00
49216;BME280;45943;53.148;8.204;2024-03-07T10:36:37;102781.56;;;10.03;100.00
49216;BME280;45943;53.148;8.204;2024-03-07T10:39:05;102777.50;;;9.95;100.00
49216;BME280;45943;53.148;8.204;2024-03-07T10:41:48;102787.03;;;9.82;100.00
49216;BME280;45943;53.148;8.204;2024-03-07T10:44:18;102786.53;;;9.73;100.00
49216;BME280;45943;53.148;8.204;2024-03-07T10:46:50;102782.72;;;9.59;100.00
49216;BME280;45943;53.148;8.204;2024-03-07T10:49:19;102781.88;;;9.58;100.00
49216;BME280;45943;53.148;8.204;2024-03-07T10:52:12;102784.06;;;9.69;100.00
49216;BME280;45943;53.148;8.204;2024-03-07T10:54:50;102775.09;;;9.89;100.00
49216;BME280;45943;53.148;8.204;2024-03-07T10:57:30;102763.56;;;9.87;100.00
49216;BME280;45943;53.148;8.204;2024-03-07T11:00:02;102767.47;;;9.98;100.00
49216;BME280;45943;53.148;8.204;2024-03-07T11:02:49;102776.22;;;9.83;100.00
49216;BME280;45943;53.148;8.204;2024-03-07T11:05:21;102775.06;;;9.70;100.00
49216;BME280;45943;53.148;8.204;2024-03-07T11:07:58;102762.41;;;9.73;100.00
49216;BME280;45943;53.148;8.204;2024-03-07T11:10:25;102768.75;;;9.71;100.00
49216;BME280;45943;53.148;8.204;2024-03-07T11:12:52;102765.03;;;9.75;100.00
49216;BME280;45943;53.148;8.204;2024-03-07T11:15:20;102771.63;;;9.87;100.00
49216;BME280;45943;53.148;8.204;2024-03-07T11:17:50;102763.91;;;9.60;100.00
49216;BME280;45943;53.148;8.204;2024-03-07T11:20:22;102756.72;;;9.61;100.00
49216;BME280;45943;53.148;8.204;2024-03-07T11:22:49;102760.66;;;9.72;100.00
49216;BME280;45943;53.148;8.204;2024-03-07T11:25:20;102757.97;;;9.91;100.00
49216;BME280;45943;53.148;8.204;2024-03-07T11:27:59;102756.41;;;9.87;100.00
49216;BME280;45943;53.148;8.204;2024-03-07T11:30:26;102752.78;;;10.07;100.00
49216;BME280;45943;53.148;8.204;2024-03-07T11:32:53;102751.19;;;10.03;100.00
49216;BME280;45943;53.148;8.204;2024-03-07T11:35:20;102756.56;;;10.03;100.00
49216;BME280;45943;53.148;8.204;2024-03-07T11:37:58;102747.31;;;9.71;100.00
49216;BME280;45943;53.148;8.204;2024-03-07T11:42:52;102749.78;;;9.57;100.00
49216;BME280;45943;53.148;8.204;2024-03-07T11:45:20;102750.09;;;9.69;100.00
49216;BME280;45943;53.148;8.204;2024-03-07T11:47:56;102747.13;;;9.75;100.00
49216;BME280;45943;53.148;8.204;2024-03-07T11:50:26;102748.63;;;9.81;100.00
49216;BME280;45943;53.148;8.204;2024-03-07T11:52:53;102745.09;;;9.81;100.00
49216;BME280;45943;53.148;8.204;2024-03-07T11:55:21;102741.09;;;9.89;100.00
49216;BME280;45943;53.148;8.204;2024-03-07T11:57:48;102748.09;;;9.93;100.00
49216;BME280;45943;53.148;8.204;2024-03-07T12:00:14;102736.09;;;9.82;100.00
49216;BME280;45943;53.148;8.204;2024-03-07T12:02:42;102748.69;;;9.61;100.00
49216;BME280;45943;53.148;8.204;2024-03-07T12:05:09;102738.06;;;9.59;100.00
49216;BME280;45943;53.148;8.204;2024-03-07T12:07:35;102735.66;;;9.53;100.00
49216;BME280;45943;53.148;8.204;2024-03-07T12:10:02;102742.78;;;9.54;100.00
49216;BME280;45943;53.148;8.204;2024-03-07T12:12:30;102741.03;;;9.33;100.00
49216;BME280;45943;53.148;8.204;2024-03-07T12:14:56;102739.59;;;9.26;100.00
49216;BME280;45943;53.148;8.204;2024-03-07T12:17:22;102741.53;;;9.22;100.00
49216;BME280;45943;53.148;8.204;2024-03-07T12:19:49;102739.84;;;9.19;100.00
49216;BME280;45943;53.148;8.204;2024-03-07T12:22:18;102732.53;;;9.23;100.00
49216;BME280;45943;53.148;8.204;2024-03-07T12:24:52;102733.78;;;9.16;100.00
49216;BME280;45943;53.148;8.204;2024-03-07T12:27:28;102735.84;;;9.09;100.00
49216;BME280;45943;53.148;8.204;2024-03-07T12:29:54;102728.94;;;9.24;100.00
49216;BME280;45943;53.148;8.204;2024-03-07T12:32:21;102734.03;;;9.10;100.00
49216;BME280;45943;53.148;8.204;2024-03-07T12:34:47;102723.13;;;9.35;100.00
49216;BME280;45943;53.148;8.204;2024-03-07T12:37:13;102726.69;;;9.34;100.00
49216;BME280;45943;53.148;8.204;2024-03-07T12:39:45;102716.47;;;9.23;100.00
49216;BME280;45943;53.148;8.204;2024-03-07T12:42:24;102717.09;;;9.09;100.00
49216;BME280;45943;53.148;8.204;2024-03-07T12:44:50;102712.66;;;9.29;100.00
49216;BME280;45943;53.148;8.204;2024-03-07T12:47:16;102704.84;;;9.43;100.00
49216;BME280;45943;53.148;8.204;2024-03-07T12:49:43;102717.31;;;9.25;100.00
49216;BME280;45943;53.148;8.204;2024-03-07T12:52:10;102702.25;;;9.41;100.00
49216;BME280;45943;53.148;8.204;2024-03-07T12:54:43;102704.44;;;9.52;100.00
49216;BME280;45943;53.148;8.204;2024-03-07T12:57:10;102696.91;;;9.60;100.00
49216;BME280;45943;53.148;8.204;2024-03-07T12:59:39;102704.94;;;9.41;100.00